sensor_id;sensor_type;location;lat;lon;timestamp;pressure;altitude;pressure_sealevel;temperature;humidity
3780;BME280;1905;52.482;9.802;2022-12-11T00:00:04;100705.78;;;0.34;86.74
3780;BME280;1905;52.482;9.802;2022-12-11T00:02:32;100710.09;;;0.37;86.57
3780;BME280;1905;52.482;9.802;2022-12-11T00:04:59;100705.78;;;0.34;86.62
3780;BME280;1905;52.482;9.802;2022-12-11T00:07:27;100701.47;;;0.32;86.71
3780;BME280;1905;52.482;9.802;2022-12-11T00:09:55;100701.44;;;0.33;86.81
3780;BME280;1905;52.482;9.802;2022-12-11T00:12:22;100704.03;;;0.33;86.45
3780;BME280;1905;52.482;9.802;2022-12-11T00:14:50;100704.03;;;0.33;86.53
3780;BME280;1905;52.482;9.802;2022-12-11T00:17:19;100711.84;;;0.32;87.16
3780;BME280;1905;52.482;9.802;2022-12-11T00:19:47;100713.56;;;0.34;86.69
3780;BME280;1905;52.482;9.802;2022-12-11T00:22:15;100708.38;;;0.33;86.65
3780;BME280;1905;52.482;9.802;2022-12-11T00:24:42;100713.56;;;0.34;86.90
3780;BME280;1905;52.482;9.802;2022-12-11T00:27:10;100707.53;;;0.32;86.79
3780;BME280;1905;52.482;9.802;2022-12-11T00:29:38;100714.44;;;0.30;86.89
3780;BME280;1905;52.482;9.802;2022-12-11T00:32:06;100711.84;;;0.30;86.85
3780;BME280;1905;52.482;9.802;2022-12-11T00:34:36;100710.13;;;0.32;86.99
3780;BME280;1905;52.482;9.802;2022-12-11T00:37:03;100705.78;;;0.31;86.76
3780;BME280;1905;52.482;9.802;2022-12-11T00:39:31;100704.94;;;0.32;86.48
3780;BME280;1905;52.482;9.802;2022-12-11T00:41:58;100706.66;;;0.30;86.75
3780;BME280;1905;52.482;9.802;2022-12-11T00:44:26;100704.91;;;0.28;86.77
3780;BME280;1905;52.482;9.802;2022-12-11T00:46:54;100720.50;;;0.31;86.74
3780;BME280;1905;52.482;9.802;2022-12-11T00:49:22;100714.44;;;0.30;86.66
3780;BME280;1905;52.482;9.802;2022-12-11T00:51:51;100712.72;;;0.31;87.20
3780;BME280;1905;52.482;9.802;2022-12-11T00:54:19;100714.44;;;0.33;86.56
3780;BME280;1905;52.482;9.802;2022-12-11T00:56:46;100710.09;;;0.28;87.02
3780;BME280;1905;52.482;9.802;2022-12-11T00:59:14;100711.84;;;0.30;86.69
3780;BME280;1905;52.482;9.802;2022-12-11T01:01:41;100711.84;;;0.29;86.64
3780;BME280;1905;52.482;9.802;2022-12-11T01:04:09;100710.13;;;0.29;86.74
3780;BME280;1905;52.482;9.802;2022-12-11T01:06:38;100716.19;;;0.28;86.69
3780;BME280;1905;52.482;9.802;2022-12-11T01:09:06;100713.59;;;0.30;86.82
3780;BME280;1905;52.482;9.802;2022-12-11T01:11:52;100714.44;;;0.29;86.59
3780;BME280;1905;52.482;9.802;2022-12-11T01:14:19;100715.31;;;0.31;86.57
3780;BME280;1905;52.482;9.802;2022-12-11T01:16:47;100712.72;;;0.29;86.74
3780;BME280;1905;52.482;9.802;2022-12-11T01:19:15;100713.59;;;0.30;86.44
3780;BME280;1905;52.482;9.802;2022-12-11T01:21:42;100708.38;;;0.28;86.74
3780;BME280;1905;52.482;9.802;2022-12-11T01:24:11;100710.13;;;0.29;86.53
3780;BME280;1905;52.482;9.802;2022-12-11T01:26:39;100713.59;;;0.30;86.48
3780;BME280;1905;52.482;9.802;2022-12-11T01:29:07;100710.09;;;0.28;86.29
3780;BME280;1905;52.482;9.802;2022-12-11T01:31:34;100709.25;;;0.30;86.76
3780;BME280;1905;52.482;9.802;2022-12-11T01:34:03;100710.13;;;0.29;86.61
3780;BME280;1905;52.482;9.802;2022-12-11T01:36:30;100715.31;;;0.29;86.88
3780;BME280;1905;52.482;9.802;2022-12-11T01:38:58;100705.78;;;0.28;86.59
3780;BME280;1905;52.482;9.802;2022-12-11T01:41:27;100707.53;;;0.29;86.62
3780;BME280;1905;52.482;9.802;2022-12-11T01:43:57;100710.13;;;0.29;87.00
3780;BME280;1905;52.482;9.802;2022-12-11T01:46:25;100714.44;;;0.27;86.27
3780;BME280;1905;52.482;9.802;2022-12-11T01:48:53;100709.25;;;0.29;86.79
3780;BME280;1905;52.482;9.802;2022-12-11T01:51:22;100711.84;;;0.29;86.54
3780;BME280;1905;52.482;9.802;2022-12-11T01:53:53;100710.97;;;0.31;86.59
3780;BME280;1905;52.482;9.802;2022-12-11T01:56:22;100707.53;;;0.32;86.42
3780;BME280;1905;52.482;9.802;2022-12-11T01:58:54;100704.91;;;0.28;86.57
3780;BME280;1905;52.482;9.802;2022-12-11T02:01:29;100698.84;;;0.27;86.62
3780;BME280;1905;52.482;9.802;2022-12-11T02:03:58;100705.78;;;0.25;86.72
3780;BME280;1905;52.482;9.802;2022-12-11T02:06:30;100698.00;;;0.25;86.63
3780;BME280;1905;52.482;9.802;2022-12-11T02:08:59;100707.53;;;0.26;86.54
3780;BME280;1905;52.482;9.802;2022-12-11T02:11:34;100704.03;;;0.27;86.82
3780;BME280;1905;52.482;9.802;2022-12-11T02:14:12;100700.59;;;0.25;86.93
3780;BME280;1905;52.482;9.802;2022-12-11T02:16:44;100710.97;;;0.25;86.70
3780;BME280;1905;52.482;9.802;2022-12-11T02:19:21;100704.91;;;0.25;86.62
3780;BME280;1905;52.482;9.802;2022-12-11T02:21:55;100707.53;;;0.26;86.79
3780;BME280;1905;52.482;9.802;2022-12-11T02:24:34;100708.38;;;0.28;86.61
3780;BME280;1905;52.482;9.802;2022-12-11T02:27:15;100709.25;;;0.29;86.45
3780;BME280;1905;52.482;9.802;2022-12-11T02:29:48;100702.34;;;0.26;86.27
3780;BME280;1905;52.482;9.802;2022-12-11T02:32:20;100706.66;;;0.27;86.51
3780;BME280;1905;52.482;9.802;2022-12-11T02:34:54;100716.19;;;0.28;86.17
3780;BME280;1905;52.482;9.802;2022-12-11T02:37:26;100713.59;;;0.27;86.51
3780;BME280;1905;52.482;9.802;2022-12-11T02:39:56;100710.97;;;0.28;86.33
3780;BME280;1905;52.482;9.802;2022-12-11T02:42:28;100711.84;;;0.30;86.42
3780;BME280;1905;52.482;9.802;2022-12-11T02:44:59;100712.72;;;0.29;86.50
3780;BME280;1905;52.482;9.802;2022-12-11T02:47:29;100710.09;;;0.28;86.42
3780;BME280;1905;52.482;9.802;2022-12-11T02:50:00;100704.91;;;0.28;86.41
3780;BME280;1905;52.482;9.802;2022-12-11T02:52:30;100704.03;;;0.27;86.85
3780;BME280;1905;52.482;9.802;2022-12-11T02:54:59;100710.97;;;0.28;86.69
3780;BME280;1905;52.482;9.802;2022-12-11T02:57:32;100699.75;;;0.29;86.30
3780;BME280;1905;52.482;9.802;2022-12-11T03:00:06;100702.34;;;0.26;86.17
3780;BME280;1905;52.482;9.802;2022-12-11T03:02:35;100706.66;;;0.29;86.39
3780;BME280;1905;52.482;9.802;2022-12-11T03:05:03;100699.75;;;0.29;86.59
3780;BME280;1905;52.482;9.802;2022-12-11T03:07:34;100700.59;;;0.28;86.58
3780;BME280;1905;52.482;9.802;2022-12-11T03:10:04;100701.50;;;0.24;86.65
3780;BME280;1905;52.482;9.802;2022-12-11T03:12:35;100695.41;;;0.25;86.61
3780;BME280;1905;52.482;9.802;2022-12-11T03:15:07;100692.81;;;0.25;86.63
3780;BME280;1905;52.482;9.802;2022-12-11T03:17:42;100695.41;;;0.25;86.75
3780;BME280;1905;52.482;9.802;2022-12-11T03:20:13;100688.50;;;0.24;86.45
3780;BME280;1905;52.482;9.802;2022-12-11T03:22:47;100691.97;;;0.23;86.78
3780;BME280;1905;52.482;9.802;2022-12-11T03:25:21;100686.75;;;0.25;86.67
3780;BME280;1905;52.482;9.802;2022-12-11T03:27:55;100682.44;;;0.24;86.45
3780;BME280;1905;52.482;9.802;2022-12-11T03:30:30;100685.03;;;0.25;86.23
3780;BME280;1905;52.482;9.802;2022-12-11T03:33:02;100690.22;;;0.25;86.78
3780;BME280;1905;52.482;9.802;2022-12-11T03:35:33;100686.75;;;0.25;86.55
3780;BME280;1905;52.482;9.802;2022-12-11T03:38:06;100693.69;;;0.24;86.11
3780;BME280;1905;52.482;9.802;2022-12-11T03:40:36;100692.81;;;0.27;86.90
3780;BME280;1905;52.482;9.802;2022-12-11T03:43:06;100687.63;;;0.25;86.86
3780;BME280;1905;52.482;9.802;2022-12-11T03:45:38;100682.44;;;0.24;86.53
3780;BME280;1905;52.482;9.802;2022-12-11T03:48:08;100682.41;;;0.25;86.70
3780;BME280;1905;52.482;9.802;2022-12-11T03:50:36;100679.81;;;0.25;86.85
3780;BME280;1905;52.482;9.802;2022-12-11T03:53:06;100687.63;;;0.24;86.79
3780;BME280;1905;52.482;9.802;2022-12-11T03:55:35;100679.84;;;0.22;86.79
3780;BME280;1905;52.482;9.802;2022-12-11T03:58:04;100685.03;;;0.25;86.73
3780;BME280;1905;52.482;9.802;2022-12-11T04:00:31;100682.41;;;0.25;86.48
3780;BME280;1905;52.482;9.802;2022-12-11T04:03:01;100685.88;;;0.26;86.67
3780;BME280;1905;52.482;9.802;2022-12-11T04:05:43;100680.69;;;0.23;86.53
3780;BME280;1905;52.482;9.802;2022-12-11T04:08:12;100685.03;;;0.25;86.95
3780;BME280;1905;52.482;9.802;2022-12-11T04:10:40;100686.75;;;0.26;86.56
3780;BME280;1905;52.482;9.802;2022-12-11T04:13:09;100683.28;;;0.27;86.61
3780;BME280;1905;52.482;9.802;2022-12-11T04:15:37;100683.28;;;0.26;86.43
3780;BME280;1905;52.482;9.802;2022-12-11T04:18:06;100677.25;;;0.24;85.98
3780;BME280;1905;52.482;9.802;2022-12-11T04:20:52;100688.47;;;0.29;86.66
3780;BME280;1905;52.482;9.802;2022-12-11T04:23:37;100686.75;;;0.26;86.45
3780;BME280;1905;52.482;9.802;2022-12-11T04:26:22;100689.38;;;0.22;86.61
3780;BME280;1905;52.482;9.802;2022-12-11T04:28:50;100697.16;;;0.23;86.61
3780;BME280;1905;52.482;9.802;2022-12-11T04:31:20;100686.75;;;0.20;86.49
3780;BME280;1905;52.482;9.802;2022-12-11T04:33:50;100695.41;;;0.22;86.89
3780;BME280;1905;52.482;9.802;2022-12-11T04:36:18;100682.44;;;0.24;86.57
3780;BME280;1905;52.482;9.802;2022-12-11T04:38:46;100681.56;;;0.23;86.38
3780;BME280;1905;52.482;9.802;2022-12-11T04:41:17;100685.03;;;0.25;86.39
3780;BME280;1905;52.482;9.802;2022-12-11T04:43:44;100689.34;;;0.26;86.57
3780;BME280;1905;52.482;9.802;2022-12-11T04:46:14;100695.41;;;0.22;86.10
3780;BME280;1905;52.482;9.802;2022-12-11T04:48:42;100687.63;;;0.21;86.44
3780;BME280;1905;52.482;9.802;2022-12-11T04:51:12;100691.97;;;0.20;86.61
3780;BME280;1905;52.482;9.802;2022-12-11T04:53:40;100681.59;;;0.22;86.19
3780;BME280;1905;52.482;9.802;2022-12-11T04:56:10;100689.38;;;0.22;86.74
3780;BME280;1905;52.482;9.802;2022-12-11T04:58:38;100696.28;;;0.24;86.65
3780;BME280;1905;52.482;9.802;2022-12-11T05:01:07;100694.56;;;0.20;86.58
3780;BME280;1905;52.482;9.802;2022-12-11T05:03:35;100679.84;;;0.22;86.59
3780;BME280;1905;52.482;9.802;2022-12-11T05:06:03;100685.03;;;0.22;86.48
3780;BME280;1905;52.482;9.802;2022-12-11T05:08:34;100683.31;;;0.24;86.61
3780;BME280;1905;52.482;9.802;2022-12-11T05:11:04;100685.91;;;0.21;86.32
3780;BME280;1905;52.482;9.802;2022-12-11T05:13:32;100671.19;;;0.20;86.60
3780;BME280;1905;52.482;9.802;2022-12-11T05:16:02;100677.22;;;0.22;86.62
3780;BME280;1905;52.482;9.802;2022-12-11T05:18:30;100679.84;;;0.19;86.48
3780;BME280;1905;52.482;9.802;2022-12-11T05:21:00;100679.84;;;0.19;86.71
3780;BME280;1905;52.482;9.802;2022-12-11T05:23:28;100678.09;;;0.20;86.66
3780;BME280;1905;52.482;9.802;2022-12-11T05:25:58;100672.91;;;0.20;86.55
3780;BME280;1905;52.482;9.802;2022-12-11T05:28:27;100679.88;;;0.16;86.69
3780;BME280;1905;52.482;9.802;2022-12-11T05:30:55;100681.56;;;0.20;87.04
3780;BME280;1905;52.482;9.802;2022-12-11T05:33:24;100678.97;;;0.20;86.53
3780;BME280;1905;52.482;9.802;2022-12-11T05:35:52;100682.44;;;0.21;86.72
3780;BME280;1905;52.482;9.802;2022-12-11T05:38:20;100672.06;;;0.21;86.54
3780;BME280;1905;52.482;9.802;2022-12-11T05:40:54;100677.22;;;0.22;86.82
3780;BME280;1905;52.482;9.802;2022-12-11T05:43:26;100666.88;;;0.18;86.48
3780;BME280;1905;52.482;9.802;2022-12-11T05:45:55;100670.31;;;0.17;86.60
3780;BME280;1905;52.482;9.802;2022-12-11T05:48:23;100673.78;;;0.20;86.44
3780;BME280;1905;52.482;9.802;2022-12-11T05:50:57;100663.41;;;0.17;86.62
3780;BME280;1905;52.482;9.802;2022-12-11T05:53:26;100668.59;;;0.19;86.71
3780;BME280;1905;52.482;9.802;2022-12-11T05:55:54;100678.97;;;0.20;86.28
3780;BME280;1905;52.482;9.802;2022-12-11T05:58:21;100674.63;;;0.19;86.62
3780;BME280;1905;52.482;9.802;2022-12-11T06:00:50;100674.66;;;0.21;86.66
3780;BME280;1905;52.482;9.802;2022-12-11T06:03:18;100676.38;;;0.20;86.21
3780;BME280;1905;52.482;9.802;2022-12-11T06:05:46;100671.19;;;0.20;86.80
3780;BME280;1905;52.482;9.802;2022-12-11T06:08:13;100668.59;;;0.17;86.54
3780;BME280;1905;52.482;9.802;2022-12-11T06:10:44;100670.34;;;0.15;86.92
3780;BME280;1905;52.482;9.802;2022-12-11T06:13:12;100664.28;;;0.18;86.88
3780;BME280;1905;52.482;9.802;2022-12-11T06:15:40;100668.63;;;0.16;86.94
3780;BME280;1905;52.482;9.802;2022-12-11T06:18:09;100678.97;;;0.17;86.65
3780;BME280;1905;52.482;9.802;2022-12-11T06:20:36;100670.31;;;0.17;86.48
3780;BME280;1905;52.482;9.802;2022-12-11T06:23:04;100672.06;;;0.18;86.46
3780;BME280;1905;52.482;9.802;2022-12-11T06:25:32;100672.06;;;0.18;86.55
3780;BME280;1905;52.482;9.802;2022-12-11T06:28:00;100662.53;;;0.18;86.44
3780;BME280;1905;52.482;9.802;2022-12-11T06:30:28;100659.94;;;0.17;86.40
3780;BME280;1905;52.482;9.802;2022-12-11T06:33:04;100664.28;;;0.15;86.60
3780;BME280;1905;52.482;9.802;2022-12-11T06:35:33;100666.00;;;0.20;86.91
3780;BME280;1905;52.482;9.802;2022-12-11T06:38:07;100663.41;;;0.17;86.11
3780;BME280;1905;52.482;9.802;2022-12-11T06:40:35;100652.16;;;0.18;86.22
3780;BME280;1905;52.482;9.802;2022-12-11T06:43:03;100667.75;;;0.15;86.33
3780;BME280;1905;52.482;9.802;2022-12-11T06:45:31;100671.19;;;0.14;86.54
3780;BME280;1905;52.482;9.802;2022-12-11T06:47:58;100672.94;;;0.15;86.48
3780;BME280;1905;52.482;9.802;2022-12-11T06:50:26;100672.94;;;0.15;86.46
3780;BME280;1905;52.482;9.802;2022-12-11T06:52:55;100660.81;;;0.11;86.52
3780;BME280;1905;52.482;9.802;2022-12-11T06:55:23;100667.75;;;0.12;86.34
3780;BME280;1905;52.482;9.802;2022-12-11T06:57:50;100670.31;;;0.14;86.47
3780;BME280;1905;52.482;9.802;2022-12-11T07:00:18;100677.25;;;0.15;86.50
3780;BME280;1905;52.482;9.802;2022-12-11T07:02:46;100670.31;;;0.14;86.28
3780;BME280;1905;52.482;9.802;2022-12-11T07:05:14;100674.69;;;0.13;86.51
3780;BME280;1905;52.482;9.802;2022-12-11T07:07:41;100676.38;;;0.14;86.50
3780;BME280;1905;52.482;9.802;2022-12-11T07:10:10;100681.56;;;0.11;86.97
3780;BME280;1905;52.482;9.802;2022-12-11T07:12:38;100685.06;;;0.13;87.05
3780;BME280;1905;52.482;9.802;2022-12-11T07:15:06;100682.44;;;0.12;86.56
3780;BME280;1905;52.482;9.802;2022-12-11T07:17:35;100683.31;;;0.12;86.71
3780;BME280;1905;52.482;9.802;2022-12-11T07:20:03;100681.59;;;0.13;86.54
3780;BME280;1905;52.482;9.802;2022-12-11T07:22:31;100685.91;;;0.15;86.53
3780;BME280;1905;52.482;9.802;2022-12-11T07:24:59;100690.25;;;0.13;86.41
3780;BME280;1905;52.482;9.802;2022-12-11T07:27:28;100690.25;;;0.16;86.27
3780;BME280;1905;52.482;9.802;2022-12-11T07:29:55;100690.25;;;0.13;86.31
3780;BME280;1905;52.482;9.802;2022-12-11T07:32:23;100691.97;;;0.14;86.45
3780;BME280;1905;52.482;9.802;2022-12-11T07:34:51;100695.44;;;0.13;86.38
3780;BME280;1905;52.482;9.802;2022-12-11T07:37:18;100696.31;;;0.12;86.13
3780;BME280;1905;52.482;9.802;2022-12-11T07:39:46;100696.31;;;0.11;86.41
3780;BME280;1905;52.482;9.802;2022-12-11T07:42:14;100710.16;;;0.10;86.39
3780;BME280;1905;52.482;9.802;2022-12-11T07:44:43;100697.16;;;0.11;86.42
3780;BME280;1905;52.482;9.802;2022-12-11T07:47:10;100698.91;;;0.09;86.41
3780;BME280;1905;52.482;9.802;2022-12-11T07:49:38;100705.81;;;0.07;86.61
3780;BME280;1905;52.482;9.802;2022-12-11T07:52:05;100703.22;;;0.12;86.28
3780;BME280;1905;52.482;9.802;2022-12-11T07:54:33;100715.31;;;0.11;86.29
3780;BME280;1905;52.482;9.802;2022-12-11T07:57:01;100715.34;;;0.10;86.39
3780;BME280;1905;52.482;9.802;2022-12-11T07:59:28;100707.53;;;0.11;86.55
3780;BME280;1905;52.482;9.802;2022-12-11T08:01:57;100710.13;;;0.14;86.25
3780;BME280;1905;52.482;9.802;2022-12-11T08:04:25;100694.56;;;0.13;85.91
3780;BME280;1905;52.482;9.802;2022-12-11T08:06:53;100696.31;;;0.12;86.05
3780;BME280;1905;52.482;9.802;2022-12-11T08:09:21;100694.56;;;0.11;86.30
3780;BME280;1905;52.482;9.802;2022-12-11T08:11:49;100695.44;;;0.10;86.66
3780;BME280;1905;52.482;9.802;2022-12-11T08:14:17;100702.34;;;0.14;86.14
3780;BME280;1905;52.482;9.802;2022-12-11T08:16:45;100695.44;;;0.12;86.16
3780;BME280;1905;52.482;9.802;2022-12-11T08:19:14;100697.16;;;0.10;86.33
3780;BME280;1905;52.482;9.802;2022-12-11T08:21:43;100699.75;;;0.10;86.22
3780;BME280;1905;52.482;9.802;2022-12-11T08:24:10;100698.91;;;0.09;86.12
3780;BME280;1905;52.482;9.802;2022-12-11T08:26:39;100692.84;;;0.10;86.34
3780;BME280;1905;52.482;9.802;2022-12-11T08:29:08;100695.44;;;0.13;86.19
3780;BME280;1905;52.482;9.802;2022-12-11T08:31:37;100693.72;;;0.11;86.14
3780;BME280;1905;52.482;9.802;2022-12-11T08:34:05;100690.25;;;0.13;86.11
3780;BME280;1905;52.482;9.802;2022-12-11T08:36:34;100688.50;;;0.12;86.33
3780;BME280;1905;52.482;9.802;2022-12-11T08:39:01;100683.31;;;0.09;86.46
3780;BME280;1905;52.482;9.802;2022-12-11T08:41:29;100688.50;;;0.12;86.48
3780;BME280;1905;52.482;9.802;2022-12-11T08:43:57;100695.44;;;0.10;86.08
3780;BME280;1905;52.482;9.802;2022-12-11T08:46:29;100695.44;;;0.10;86.22
3780;BME280;1905;52.482;9.802;2022-12-11T08:48:58;100701.50;;;0.12;86.30
3780;BME280;1905;52.482;9.802;2022-12-11T08:51:29;100701.50;;;0.15;86.20
3780;BME280;1905;52.482;9.802;2022-12-11T08:53:59;100698.03;;;0.13;86.19
3780;BME280;1905;52.482;9.802;2022-12-11T08:56:28;100698.91;;;0.12;86.24
3780;BME280;1905;52.482;9.802;2022-12-11T08:58:58;100702.34;;;0.11;86.38
3780;BME280;1905;52.482;9.802;2022-12-11T09:01:26;100703.22;;;0.13;86.26
3780;BME280;1905;52.482;9.802;2022-12-11T09:03:55;100702.34;;;0.14;86.30
3780;BME280;1905;52.482;9.802;2022-12-11T09:06:25;100695.44;;;0.13;86.47
3780;BME280;1905;52.482;9.802;2022-12-11T09:08:54;100697.16;;;0.11;86.38
3780;BME280;1905;52.482;9.802;2022-12-11T09:11:26;100692.84;;;0.15;86.50
3780;BME280;1905;52.482;9.802;2022-12-11T09:13:54;100686.78;;;0.14;86.17
3780;BME280;1905;52.482;9.802;2022-12-11T09:16:27;100693.69;;;0.15;86.50
3780;BME280;1905;52.482;9.802;2022-12-11T09:18:56;100693.69;;;0.15;86.32
3780;BME280;1905;52.482;9.802;2022-12-11T09:21:26;100697.16;;;0.17;86.34
3780;BME280;1905;52.482;9.802;2022-12-11T09:23:56;100691.09;;;0.17;86.14
3780;BME280;1905;52.482;9.802;2022-12-11T09:26:26;100683.31;;;0.18;86.30
3780;BME280;1905;52.482;9.802;2022-12-11T09:28:54;100683.31;;;0.18;86.20
3780;BME280;1905;52.482;9.802;2022-12-11T09:31:24;100688.50;;;0.18;86.14
3780;BME280;1905;52.482;9.802;2022-12-11T09:33:54;100686.75;;;0.20;86.31
3780;BME280;1905;52.482;9.802;2022-12-11T09:36:22;100680.72;;;0.21;86.51
3780;BME280;1905;52.482;9.802;2022-12-11T09:38:51;100677.25;;;0.21;86.53
3780;BME280;1905;52.482;9.802;2022-12-11T09:41:39;100674.63;;;0.22;86.72
3780;BME280;1905;52.482;9.802;2022-12-11T09:44:19;100676.38;;;0.20;86.51
3780;BME280;1905;52.482;9.802;2022-12-11T09:46:49;100679.00;;;0.22;86.43
3780;BME280;1905;52.482;9.802;2022-12-11T09:49:30;100672.94;;;0.24;86.48
3780;BME280;1905;52.482;9.802;2022-12-11T09:52:07;100668.59;;;0.26;86.41
3780;BME280;1905;52.482;9.802;2022-12-11T09:54:40;100666.00;;;0.26;86.29
3780;BME280;1905;52.482;9.802;2022-12-11T09:57:19;100662.50;;;0.27;86.36
3780;BME280;1905;52.482;9.802;2022-12-11T10:00:04;100672.03;;;0.28;86.42
3780;BME280;1905;52.482;9.802;2022-12-11T10:02:45;100673.78;;;0.29;86.45
3780;BME280;1905;52.482;9.802;2022-12-11T10:05:19;100670.28;;;0.30;86.12
3780;BME280;1905;52.482;9.802;2022-12-11T10:07:52;100664.25;;;0.30;86.03
3780;BME280;1905;52.482;9.802;2022-12-11T10:10:35;100660.78;;;0.32;86.20
3780;BME280;1905;52.482;9.802;2022-12-11T10:13:15;100659.03;;;0.34;86.36
3780;BME280;1905;52.482;9.802;2022-12-11T10:15:50;100662.50;;;0.33;86.25
3780;BME280;1905;52.482;9.802;2022-12-11T10:18:23;100656.44;;;0.37;86.23
3780;BME280;1905;52.482;9.802;2022-12-11T10:20:53;100648.63;;;0.39;86.14
3780;BME280;1905;52.482;9.802;2022-12-11T10:23:26;100642.56;;;0.41;86.28
3780;BME280;1905;52.482;9.802;2022-12-11T10:26:00;100641.69;;;0.44;85.87
3780;BME280;1905;52.482;9.802;2022-12-11T10:28:30;100633.06;;;0.43;85.45
3780;BME280;1905;52.482;9.802;2022-12-11T10:31:05;100631.28;;;0.47;86.10
3780;BME280;1905;52.482;9.802;2022-12-11T10:33:42;100632.16;;;0.49;86.01
3780;BME280;1905;52.482;9.802;2022-12-11T10:36:18;100626.94;;;0.50;86.49
3780;BME280;1905;52.482;9.802;2022-12-11T10:38:46;100624.34;;;0.50;85.91
3780;BME280;1905;52.482;9.802;2022-12-11T10:41:17;100628.69;;;0.50;85.84
3780;BME280;1905;52.482;9.802;2022-12-11T10:43:49;100627.81;;;0.52;86.08
3780;BME280;1905;52.482;9.802;2022-12-11T10:46:20;100624.34;;;0.50;85.73
3780;BME280;1905;52.482;9.802;2022-12-11T10:48:52;100620.91;;;0.51;86.01
3780;BME280;1905;52.482;9.802;2022-12-11T10:51:21;100636.50;;;0.51;85.94
3780;BME280;1905;52.482;9.802;2022-12-11T10:53:52;100631.28;;;0.51;85.44
3780;BME280;1905;52.482;9.802;2022-12-11T10:56:27;100626.97;;;0.47;85.88
3780;BME280;1905;52.482;9.802;2022-12-11T10:58:57;100629.56;;;0.47;85.69
3780;BME280;1905;52.482;9.802;2022-12-11T11:01:28;100618.31;;;0.42;86.31
3780;BME280;1905;52.482;9.802;2022-12-11T11:04:00;100619.19;;;0.41;85.71
3780;BME280;1905;52.482;9.802;2022-12-11T11:06:29;100623.50;;;0.41;85.92
3780;BME280;1905;52.482;9.802;2022-12-11T11:09:01;100621.78;;;0.38;85.92
3780;BME280;1905;52.482;9.802;2022-12-11T11:11:30;100620.09;;;0.37;85.86
3780;BME280;1905;52.482;9.802;2022-12-11T11:14:21;100619.22;;;0.35;86.12
3780;BME280;1905;52.482;9.802;2022-12-11T11:16:51;100617.50;;;0.34;85.88
3780;BME280;1905;52.482;9.802;2022-12-11T11:19:22;100622.69;;;0.31;86.26
3780;BME280;1905;52.482;9.802;2022-12-11T11:21:52;100619.25;;;0.32;86.00
3780;BME280;1905;52.482;9.802;2022-12-11T11:24:27;100623.53;;;0.33;86.18
3780;BME280;1905;52.482;9.802;2022-12-11T11:26:56;100626.16;;;0.30;85.71
3780;BME280;1905;52.482;9.802;2022-12-11T11:29:41;100623.53;;;0.33;86.27
3780;BME280;1905;52.482;9.802;2022-12-11T11:32:20;100622.69;;;0.28;85.96
3780;BME280;1905;52.482;9.802;2022-12-11T11:34:48;100620.13;;;0.24;86.29
3780;BME280;1905;52.482;9.802;2022-12-11T11:37:25;100626.19;;;0.24;86.05
3780;BME280;1905;52.482;9.802;2022-12-11T11:40:00;100619.28;;;0.22;86.19
3780;BME280;1905;52.482;9.802;2022-12-11T11:42:38;100614.03;;;0.25;85.95
3780;BME280;1905;52.482;9.802;2022-12-11T11:45:13;100612.31;;;0.25;85.92
3780;BME280;1905;52.482;9.802;2022-12-11T11:47:51;100615.81;;;0.21;86.21
3780;BME280;1905;52.482;9.802;2022-12-11T11:50:26;100613.22;;;0.21;86.35
3780;BME280;1905;52.482;9.802;2022-12-11T11:53:01;100611.47;;;0.23;86.00
3780;BME280;1905;52.482;9.802;2022-12-11T11:55:38;100604.53;;;0.19;86.65
3780;BME280;1905;52.482;9.802;2022-12-11T11:58:24;100617.53;;;0.19;85.88
3780;BME280;1905;52.482;9.802;2022-12-11T12:00:54;100621.00;;;0.18;86.30
3780;BME280;1905;52.482;9.802;2022-12-11T12:03:23;100624.47;;;0.20;85.96
3780;BME280;1905;52.482;9.802;2022-12-11T12:05:56;100624.47;;;0.17;85.68
3780;BME280;1905;52.482;9.802;2022-12-11T12:08:39;100616.66;;;0.17;86.03
3780;BME280;1905;52.482;9.802;2022-12-11T12:11:13;100619.28;;;0.16;85.62
3780;BME280;1905;52.482;9.802;2022-12-11T12:13:51;100620.16;;;0.15;86.14
3780;BME280;1905;52.482;9.802;2022-12-11T12:16:31;100622.75;;;0.16;86.22
3780;BME280;1905;52.482;9.802;2022-12-11T12:19:29;100615.81;;;0.17;86.63
3780;BME280;1905;52.482;9.802;2022-12-11T12:22:07;100617.56;;;0.16;86.06
3780;BME280;1905;52.482;9.802;2022-12-11T12:24:49;100613.22;;;0.18;85.94
3780;BME280;1905;52.482;9.802;2022-12-11T12:27:28;100607.19;;;0.16;86.02
3780;BME280;1905;52.482;9.802;2022-12-11T12:30:19;100603.69;;;0.17;86.20
3780;BME280;1905;52.482;9.802;2022-12-11T12:33:05;100598.50;;;0.14;86.35
3780;BME280;1905;52.482;9.802;2022-12-11T12:35:43;100586.38;;;0.19;86.12
3780;BME280;1905;52.482;9.802;2022-12-11T12:38:20;100588.13;;;0.17;86.21
3780;BME280;1905;52.482;9.802;2022-12-11T12:40:56;100586.38;;;0.19;86.18
3780;BME280;1905;52.482;9.802;2022-12-11T12:43:44;100590.72;;;0.20;86.20
3780;BME280;1905;52.482;9.802;2022-12-11T12:46:20;100592.44;;;0.21;86.23
3780;BME280;1905;52.482;9.802;2022-12-11T12:48:54;100586.38;;;0.22;86.00
3780;BME280;1905;52.482;9.802;2022-12-11T12:51:25;100582.91;;;0.23;85.96
3780;BME280;1905;52.482;9.802;2022-12-11T12:53:54;100586.38;;;0.27;86.10
3780;BME280;1905;52.482;9.802;2022-12-11T12:56:26;100586.34;;;0.28;86.14
3780;BME280;1905;52.482;9.802;2022-12-11T12:58:55;100582.00;;;0.30;85.83
3780;BME280;1905;52.482;9.802;2022-12-11T13:01:25;100589.81;;;0.32;85.76
3780;BME280;1905;52.482;9.802;2022-12-11T13:03:56;100584.59;;;0.33;86.02
3780;BME280;1905;52.482;9.802;2022-12-11T13:06:36;100589.78;;;0.33;86.01
3780;BME280;1905;52.482;9.802;2022-12-11T13:09:15;100593.25;;;0.34;86.31
3780;BME280;1905;52.482;9.802;2022-12-11T13:11:43;100589.78;;;0.36;85.90
3780;BME280;1905;52.482;9.802;2022-12-11T13:14:28;100582.84;;;0.38;86.19
3780;BME280;1905;52.482;9.802;2022-12-11T13:17:06;100581.13;;;0.37;86.14
3780;BME280;1905;52.482;9.802;2022-12-11T13:19:35;100579.41;;;0.36;86.18
3780;BME280;1905;52.482;9.802;2022-12-11T13:22:21;100578.53;;;0.37;86.34
3780;BME280;1905;52.482;9.802;2022-12-11T13:24:57;100582.84;;;0.38;85.93
3780;BME280;1905;52.482;9.802;2022-12-11T13:27:36;100587.16;;;0.39;86.19
3780;BME280;1905;52.482;9.802;2022-12-11T13:30:15;100585.44;;;0.41;86.07
3780;BME280;1905;52.482;9.802;2022-12-11T13:32:55;100587.16;;;0.39;86.28
3780;BME280;1905;52.482;9.802;2022-12-11T13:35:28;100591.50;;;0.39;86.29
3780;BME280;1905;52.482;9.802;2022-12-11T13:38:02;100589.78;;;0.39;85.84
3780;BME280;1905;52.482;9.802;2022-12-11T13:40:37;100592.38;;;0.39;86.10
3780;BME280;1905;52.482;9.802;2022-12-11T13:43:13;100599.28;;;0.39;86.22